createdAt,value
2023-09-02T00:01:07.671Z,3.33
2023-09-02T00:06:09.324Z,3.05
2023-09-02T00:11:11.376Z,3.10
2023-09-02T00:16:13.057Z,2.70
2023-09-02T00:21:14.534Z,3.30
2023-09-02T00:26:16.201Z,2.85
2023-09-02T00:31:17.701Z,3.05
2023-09-02T00:36:19.417Z,2.90
2023-09-02T00:41:30.410Z,3.13
2023-09-02T00:46:32.310Z,2.88
2023-09-02T00:51:33.863Z,3.00
2023-09-02T00:56:37.149Z,2.70
2023-09-02T01:01:41.500Z,2.72
2023-09-02T01:06:43.050Z,3.42
2023-09-02T01:11:44.535Z,3.45
2023-09-02T01:16:46.219Z,2.95
2023-09-02T01:22:07.230Z,2.60
2023-09-02T01:27:20.577Z,3.20
2023-09-02T01:32:24.195Z,3.20
2023-09-02T01:37:26.896Z,2.60
2023-09-02T01:42:28.871Z,2.90
2023-09-02T01:47:31.821Z,3.33
2023-09-02T01:52:34.573Z,3.85
2023-09-02T01:57:36.616Z,2.95
2023-09-02T02:02:39.016Z,3.60
2023-09-02T02:07:49.077Z,3.33
2023-09-02T02:17:53.499Z,2.78
2023-09-02T02:22:54.974Z,3.30
2023-09-02T02:27:56.651Z,4.00
2023-09-02T02:32:58.209Z,3.45
2023-09-02T02:38:00.453Z,3.40
2023-09-02T02:43:01.984Z,3.50
2023-09-02T02:48:03.795Z,3.55
2023-09-02T02:53:05.436Z,3.28
2023-09-02T02:58:07.092Z,3.50
2023-09-02T03:03:08.901Z,3.80
2023-09-02T03:08:11.131Z,3.47
2023-09-02T03:13:12.646Z,3.85
2023-09-02T03:18:14.536Z,3.72
2023-09-02T03:23:16.473Z,4.20
2023-09-02T03:28:18.082Z,3.50
2023-09-02T03:33:19.877Z,3.78
2023-09-02T03:38:21.697Z,3.63
2023-09-02T03:43:23.767Z,3.50
2023-09-02T03:48:25.437Z,3.45
2023-09-02T03:53:27.169Z,3.30
2023-09-02T03:58:29.730Z,3.28
2023-09-02T04:03:33.915Z,2.80
2023-09-02T04:08:35.830Z,3.20
2023-09-02T04:13:37.774Z,3.00
2023-09-02T04:18:39.452Z,3.65
2023-09-02T04:23:41.102Z,3.15
2023-09-02T04:28:42.678Z,2.90
2023-09-02T04:33:44.207Z,3.13
2023-09-02T04:38:46.231Z,3.42
2023-09-02T04:43:47.986Z,2.80
2023-09-02T04:48:49.609Z,3.20
2023-09-02T04:53:51.228Z,2.95
2023-09-02T04:58:52.769Z,3.10
2023-09-02T05:03:54.296Z,3.55
2023-09-02T05:08:56.141Z,3.28
2023-09-02T05:13:57.831Z,4.03
2023-09-02T05:18:59.692Z,3.90
2023-09-02T05:24:01.317Z,2.92
2023-09-02T05:29:03.095Z,3.03
2023-09-02T05:34:04.581Z,2.90
2023-09-02T05:39:06.166Z,3.10
2023-09-02T05:44:07.739Z,3.05
2023-09-02T05:49:11.422Z,2.78
2023-09-02T05:54:16.370Z,2.75
2023-09-02T06:04:43.392Z,2.55
2023-09-02T06:09:51.146Z,2.60
2023-09-02T06:15:01.572Z,2.50
2023-09-02T06:20:03.291Z,2.30
2023-09-02T06:25:05.260Z,2.72
2023-09-02T06:30:07.379Z,2.38
2023-09-02T06:35:14.657Z,3.00
2023-09-02T06:40:19.270Z,2.22
2023-09-02T06:45:21.037Z,2.67
2023-09-02T06:50:26.934Z,2.38
2023-09-02T06:55:30.609Z,2.15
2023-09-02T07:00:34.738Z,2.47
2023-09-02T07:05:36.326Z,2.72
2023-09-02T07:10:37.945Z,2.20
2023-09-02T07:15:39.557Z,2.17
2023-09-02T07:20:41.080Z,1.70
2023-09-02T07:25:51.620Z,1.80
2023-09-02T07:30:57.956Z,1.73
2023-09-02T07:36:01.873Z,2.20
2023-09-02T07:41:03.692Z,1.67
2023-09-02T07:46:05.394Z,1.33
2023-09-02T07:51:07.352Z,1.20
2023-09-02T07:56:56.044Z,1.50
2023-09-02T08:01:59.130Z,1.40
2023-09-02T08:07:00.965Z,1.67
2023-09-02T08:12:02.760Z,1.65
2023-09-02T08:17:12.196Z,1.45
2023-09-02T08:27:18.474Z,1.27
2023-09-02T08:32:24.375Z,1.30
2023-09-02T08:37:27.504Z,1.50
2023-09-02T08:42:30.752Z,1.23
2023-09-02T08:47:35.381Z,1.45
2023-09-02T08:52:42.611Z,1.27
2023-09-02T08:57:45.797Z,1.35
2023-09-02T09:02:47.828Z,1.40
2023-09-02T09:07:50.220Z,1.30
2023-09-02T09:12:53.780Z,1.30
2023-09-02T09:18:04.278Z,1.20
2023-09-02T09:23:53.364Z,1.50
2023-09-02T09:29:25.847Z,1.05
2023-09-02T09:34:41.876Z,1.08
2023-09-02T09:39:44.448Z,1.08
2023-09-02T09:45:07.741Z,1.50
2023-09-02T09:50:20.168Z,1.35
2023-09-02T10:01:04.337Z,1.27
2023-09-02T10:07:20.533Z,1.13
2023-09-02T10:18:02.668Z,1.40
2023-09-02T10:23:11.283Z,1.45
2023-09-02T10:39:09.241Z,1.02
2023-09-02T10:45:26.019Z,1.27
2023-09-02T10:50:19.018Z,1.25
2023-09-02T10:55:28.053Z,1.00
2023-09-02T11:00:49.312Z,1.20
2023-09-02T11:06:09.934Z,1.20
2023-09-02T11:11:12.284Z,1.20
2023-09-02T11:16:34.798Z,1.40
2023-09-02T11:21:50.102Z,1.40
2023-09-02T11:38:50.154Z,1.38
2023-09-02T11:43:57.268Z,1.17
2023-09-02T11:49:02.733Z,1.30
2023-09-02T11:54:24.754Z,1.00
2023-09-02T12:05:13.762Z,1.38
2023-09-02T12:10:18.118Z,1.50
2023-09-02T12:15:23.530Z,1.38
2023-09-02T12:20:25.691Z,1.42
2023-09-02T12:25:27.406Z,1.20
2023-09-02T12:30:31.121Z,1.30
2023-09-02T12:35:33.928Z,1.15
2023-09-02T12:40:38.040Z,1.25
2023-09-02T12:45:39.790Z,1.50
2023-09-02T12:50:41.854Z,1.73
2023-09-02T12:55:45.026Z,1.63
2023-09-02T13:00:49.137Z,2.10
2023-09-02T13:05:53.446Z,1.60
2023-09-02T13:10:56.530Z,1.88
2023-09-02T13:16:00.890Z,1.70
2023-09-02T13:21:02.740Z,1.60
2023-09-02T13:26:16.542Z,1.63
2023-09-02T13:31:21.548Z,1.75
2023-09-02T13:36:23.267Z,1.77
2023-09-02T13:41:25.909Z,1.88
2023-09-02T13:46:35.031Z,1.45
2023-09-02T13:51:37.152Z,1.40
2023-09-02T13:56:55.466Z,1.38
2023-09-02T14:02:06.079Z,1.50
2023-09-02T14:07:07.915Z,1.60
2023-09-02T14:12:34.596Z,1.25
2023-09-02T14:17:36.114Z,1.50
2023-09-02T14:22:37.665Z,1.20
2023-09-02T14:27:39.495Z,1.25
2023-09-02T14:32:41.081Z,1.60
2023-09-02T14:37:42.771Z,1.90
2023-09-02T14:42:47.357Z,1.45
2023-09-02T14:47:52.250Z,1.48
2023-09-02T14:52:57.101Z,1.77
2023-09-02T14:58:01.467Z,1.88
2023-09-02T15:03:10.897Z,1.73
2023-09-02T15:08:14.872Z,1.42
2023-09-02T15:13:18.263Z,2.00
2023-09-02T15:18:27.663Z,1.88
2023-09-02T15:23:31.621Z,1.33
2023-09-02T15:28:33.285Z,3.15
2023-09-02T15:33:35.081Z,1.50
2023-09-02T15:38:39.877Z,1.10
2023-09-02T15:43:41.539Z,1.55
2023-09-02T15:59:17.187Z,1.50
2023-09-02T16:04:22.109Z,2.10
2023-09-02T16:09:25.263Z,1.60
2023-09-02T16:14:37.130Z,1.67
2023-09-02T16:19:38.774Z,1.40
2023-09-02T16:29:51.657Z,3.92
2023-09-02T16:34:53.206Z,7.13
2023-09-02T16:39:56.524Z,3.63
2023-09-02T16:45:03.718Z,4.15
2023-09-02T16:50:07.523Z,4.90
2023-09-02T16:55:15.633Z,4.30
2023-09-02T17:00:19.617Z,4.73
2023-09-02T17:05:22.906Z,4.20
2023-09-02T17:10:37.683Z,4.30
2023-09-02T17:15:54.395Z,3.80
2023-09-02T17:21:12.855Z,5.30
2023-09-02T17:26:20.752Z,5.45
2023-09-02T17:31:24.832Z,5.07
2023-09-02T17:54:26.925Z,7.28
2023-09-02T18:05:33.733Z,7.80
2023-09-02T18:10:50.684Z,8.65
2023-09-02T18:27:00.561Z,8.95
2023-09-02T18:38:29.467Z,10.43
2023-09-02T18:43:45.416Z,10.57
2023-09-02T18:48:51.352Z,11.40
2023-09-02T18:59:11.946Z,11.05
2023-09-02T19:04:13.635Z,12.48
2023-09-02T19:09:15.154Z,12.02
2023-09-02T19:14:16.702Z,11.57
2023-09-02T19:19:18.305Z,11.82
2023-09-02T19:24:20.149Z,11.77
2023-09-02T19:29:21.741Z,12.07
2023-09-02T19:34:23.384Z,13.13
2023-09-02T19:39:25.126Z,11.85
2023-09-02T19:44:31.922Z,13.52
2023-09-02T19:49:33.698Z,13.50
2023-09-02T19:54:35.247Z,13.38
2023-09-02T19:59:36.973Z,15.90
2023-09-02T20:04:38.798Z,14.68
2023-09-02T20:09:40.805Z,14.55
2023-09-02T20:14:42.327Z,14.70
2023-09-02T20:19:43.871Z,20.10
2023-09-02T20:24:45.361Z,14.55
2023-09-02T20:29:47.047Z,14.73
2023-09-02T20:34:48.772Z,14.27
2023-09-02T20:39:50.344Z,13.70
2023-09-02T20:44:52.004Z,13.20
2023-09-02T20:49:53.930Z,13.07
2023-09-02T20:54:56.074Z,13.10
2023-09-02T20:59:58.573Z,12.98
2023-09-02T21:05:00.301Z,13.65
2023-09-02T21:10:01.920Z,13.70
2023-09-02T21:15:03.826Z,13.13
2023-09-02T21:20:06.876Z,14.18
2023-09-02T21:25:10.122Z,14.02
2023-09-02T21:30:12.032Z,13.48
2023-09-02T21:35:13.839Z,14.43
2023-09-02T21:40:15.370Z,14.13
2023-09-02T21:45:18.784Z,14.30
2023-09-02T21:50:20.413Z,13.50
2023-09-02T21:55:22.104Z,13.18
2023-09-02T22:00:23.721Z,14.02
2023-09-02T22:05:25.305Z,14.15
2023-09-02T22:10:26.957Z,13.57
2023-09-02T22:15:28.461Z,12.32
2023-09-02T22:20:30.108Z,13.85
2023-09-02T22:25:31.616Z,13.73
2023-09-02T22:30:33.302Z,12.57
2023-09-02T22:35:34.934Z,11.55
2023-09-02T22:40:36.659Z,11.95
2023-09-02T22:45:38.613Z,11.40
2023-09-02T22:50:40.549Z,11.55
2023-09-02T22:55:42.452Z,12.85
2023-09-02T23:00:44.412Z,12.20
2023-09-02T23:05:45.986Z,14.13
2023-09-02T23:10:47.446Z,12.55
2023-09-02T23:15:48.936Z,13.27
2023-09-02T23:20:50.468Z,12.32
2023-09-02T23:25:52.824Z,13.32
2023-09-02T23:30:58.654Z,12.50
2023-09-02T23:36:00.369Z,13.05
2023-09-02T23:41:02.843Z,12.63
2023-09-02T23:46:04.564Z,12.95
2023-09-02T23:51:06.230Z,12.68
2023-09-02T23:56:07.707Z,12.27
